Terminal Aerodrome Forecast
Issued by NWS Cleveland, OH

Home | Current Version | Previous Version | Graphics & Text | Print | Product List | Glossary On
Versions: 1 2 3 4 5 6 7 8 9 10 11 12 13 14 15
000
FTUS41 KCLE 181720
TAFYNG
TAF
KYNG 181720Z 1818/1918 VRB04KT P6SM SCT025
     FM190000 VRB04KT P6SM -RA OVC030
     FM190200 06006KT 5SM -RA OVC015
     FM190400 02007KT 5SM -RA OVC007
     FM190900 34009KT 4SM -SN OVC007
     FM191300 34012G25KT P6SM VCSH OVC015=

USA.gov is the U.S. government's official web portal to all federal, state and local government web resources and services.